createdAt,value
2018-10-02T00:00:46.278Z,7.66
2018-10-02T00:03:16.276Z,7.70
2018-10-02T00:05:46.270Z,7.74
2018-10-02T00:08:16.278Z,7.80
2018-10-02T00:10:51.306Z,7.84
2018-10-02T00:13:26.183Z,7.89
2018-10-02T00:15:56.110Z,7.94
2018-10-02T00:18:26.079Z,7.98
2018-10-02T00:20:56.047Z,8.02
2018-10-02T00:23:26.014Z,8.07
2018-10-02T00:25:56.019Z,8.11
2018-10-02T00:28:25.999Z,8.13
2018-10-02T00:30:55.975Z,8.16
2018-10-02T00:33:25.958Z,8.19
2018-10-02T00:35:55.986Z,8.23
2018-10-02T00:38:25.986Z,8.25
2018-10-02T00:40:55.965Z,8.28
2018-10-02T00:43:25.914Z,8.31
2018-10-02T00:45:55.934Z,8.33
2018-10-02T00:48:25.908Z,8.36
2018-10-02T00:50:55.877Z,8.39
2018-10-02T00:53:25.860Z,8.44
2018-10-02T00:55:55.855Z,8.47
2018-10-02T00:58:25.888Z,8.50
2018-10-02T01:00:55.902Z,8.54
2018-10-02T01:03:25.857Z,8.57
2018-10-02T01:05:55.746Z,8.58
2018-10-02T01:08:25.774Z,8.59
2018-10-02T01:10:55.827Z,8.56
2018-10-02T01:13:25.855Z,8.56
2018-10-02T01:15:55.814Z,8.56
2018-10-02T01:18:25.885Z,8.56
2018-10-02T01:20:55.950Z,8.58
2018-10-02T01:23:25.973Z,8.60
2018-10-02T01:25:56.049Z,8.63
2018-10-02T01:28:26.027Z,8.65
2018-10-02T01:30:55.994Z,8.67
2018-10-02T01:33:26.006Z,8.72
2018-10-02T01:35:56.053Z,8.75
2018-10-02T01:38:26.067Z,8.77
2018-10-02T01:40:56.003Z,8.79
2018-10-02T01:43:26.026Z,8.81
2018-10-02T01:45:55.958Z,8.84
2018-10-02T01:48:25.975Z,8.86
2018-10-02T01:50:55.941Z,8.89
2018-10-02T01:53:25.964Z,8.90
2018-10-02T01:55:55.945Z,8.93
2018-10-02T01:58:25.972Z,8.95
2018-10-02T02:00:56.032Z,8.96
2018-10-02T02:03:26.059Z,8.96
2018-10-02T02:05:56.070Z,8.96
2018-10-02T02:08:26.053Z,8.97
2018-10-02T02:10:56.020Z,8.97
2018-10-02T02:13:25.987Z,8.98
2018-10-02T02:15:56.065Z,9.00
2018-10-02T02:18:26.068Z,9.02
2018-10-02T02:20:56.083Z,9.02
2018-10-02T02:23:26.041Z,9.03
2018-10-02T02:25:56.026Z,9.06
2018-10-02T02:28:25.999Z,9.07
2018-10-02T02:30:55.956Z,9.07
2018-10-02T02:33:25.919Z,9.08
2018-10-02T02:35:55.879Z,9.09
2018-10-02T02:38:25.861Z,9.11
2018-10-02T02:40:55.893Z,9.12
2018-10-02T02:43:25.955Z,9.13
2018-10-02T02:45:55.917Z,9.16
2018-10-02T02:50:34.862Z,9.18
2018-10-02T02:53:07.632Z,9.23
2018-10-02T02:55:37.793Z,9.24
2018-10-02T02:58:07.772Z,9.26
2018-10-02T03:00:37.793Z,9.28
2018-10-02T03:03:07.789Z,9.27
2018-10-02T03:05:37.807Z,9.29
2018-10-02T03:08:07.780Z,9.29
2018-10-02T03:10:37.763Z,9.29
2018-10-02T03:13:07.777Z,9.29
2018-10-02T03:15:37.773Z,9.30
2018-10-02T03:18:07.718Z,9.31
2018-10-02T03:20:37.725Z,9.32
2018-10-02T03:23:07.702Z,9.33
2018-10-02T03:25:37.750Z,9.33
2018-10-02T03:28:07.770Z,9.33
2018-10-02T03:30:37.803Z,9.35
2018-10-02T03:33:08.078Z,9.36
2018-10-02T03:35:38.049Z,9.38
2018-10-02T03:38:08.056Z,9.39
2018-10-02T03:40:38.059Z,9.41
2018-10-02T03:43:08.053Z,9.42
2018-10-02T03:45:38.011Z,9.43
2018-10-02T03:48:08.045Z,9.44
2018-10-02T03:50:37.954Z,9.46
2018-10-02T03:53:07.930Z,9.49
2018-10-02T03:55:37.947Z,9.51
2018-10-02T03:58:07.947Z,9.53
2018-10-02T04:00:37.988Z,9.55
2018-10-02T04:03:08.050Z,9.56
2018-10-02T04:05:38.063Z,9.59
2018-10-02T04:08:08.060Z,9.61
2018-10-02T04:10:38.057Z,9.63
2018-10-02T04:13:08.175Z,9.66
2018-10-02T04:15:38.243Z,9.68
2018-10-02T04:18:08.295Z,9.70
2018-10-02T04:20:38.299Z,9.74
2018-10-02T04:23:08.276Z,9.76
2018-10-02T04:25:38.264Z,9.78
2018-10-02T04:28:08.370Z,9.79
2018-10-02T04:30:38.392Z,9.79
2018-10-02T04:33:08.412Z,9.82
2018-10-02T04:35:38.402Z,9.82
2018-10-02T04:38:08.392Z,9.84
2018-10-02T04:40:38.427Z,9.85
2018-10-02T04:43:08.433Z,9.87
2018-10-02T04:45:38.394Z,9.87
2018-10-02T04:48:08.332Z,9.89
2018-10-02T04:50:39.266Z,9.89
2018-10-02T04:53:09.513Z,9.90
2018-10-02T04:55:40.401Z,9.90
2018-10-02T04:58:10.414Z,9.90
2018-10-02T05:00:40.402Z,9.91
2018-10-02T05:03:10.562Z,9.91
2018-10-02T05:05:40.508Z,9.91
2018-10-02T05:08:10.570Z,9.92
2018-10-02T05:10:40.544Z,9.93
2018-10-02T05:13:10.640Z,9.94
2018-10-02T05:15:40.626Z,9.95
2018-10-02T05:18:10.654Z,9.94
2018-10-02T05:20:40.694Z,9.98
2018-10-02T05:23:10.680Z,9.99
2018-10-02T05:25:40.709Z,9.99
2018-10-02T05:28:10.941Z,10.00
2018-10-02T05:30:40.971Z,10.01
2018-10-02T05:33:10.956Z,10.02
2018-10-02T05:35:40.976Z,10.04
2018-10-02T05:38:10.947Z,10.03
2018-10-02T05:40:40.995Z,10.05
2018-10-02T05:43:10.977Z,10.05
2018-10-02T05:45:40.987Z,10.05
2018-10-02T05:48:11.026Z,10.06
2018-10-02T05:50:41.027Z,10.07
2018-10-02T05:53:11.147Z,10.09
2018-10-02T05:55:41.073Z,10.10
2018-10-02T05:58:11.112Z,10.11
2018-10-02T06:00:41.100Z,10.12
2018-10-02T06:03:11.155Z,10.13
2018-10-02T06:05:41.140Z,10.15
2018-10-02T06:08:11.158Z,10.17
2018-10-02T06:10:41.188Z,10.18
2018-10-02T06:13:11.358Z,10.21
2018-10-02T06:15:41.411Z,10.21
2018-10-02T06:18:11.511Z,10.23
2018-10-02T06:20:41.552Z,10.24
2018-10-02T06:23:11.577Z,10.27
2018-10-02T06:25:41.474Z,10.28
2018-10-02T06:28:11.523Z,10.30
2018-10-02T06:30:41.877Z,10.31
2018-10-02T06:33:11.948Z,10.33
2018-10-02T06:35:41.916Z,10.35
2018-10-02T06:38:11.960Z,10.36
2018-10-02T06:40:41.979Z,10.38
2018-10-02T06:43:11.897Z,10.39
2018-10-02T06:45:41.883Z,10.40
2018-10-02T06:48:11.906Z,10.41
2018-10-02T06:50:41.905Z,10.42
2018-10-02T06:53:11.834Z,10.46
2018-10-02T06:55:41.910Z,10.49
2018-10-02T06:58:11.847Z,10.51
2018-10-02T07:00:42.048Z,10.54
2018-10-02T07:03:11.992Z,10.57
2018-10-02T07:05:42.030Z,10.60
2018-10-02T07:08:12.055Z,10.62
2018-10-02T07:10:42.076Z,10.64
2018-10-02T07:13:12.075Z,10.66
2018-10-02T07:15:42.049Z,10.66
2018-10-02T07:18:12.004Z,10.68
2018-10-02T07:20:42.028Z,10.69
2018-10-02T07:23:11.848Z,10.72
2018-10-02T07:25:41.783Z,10.74
2018-10-02T07:28:11.805Z,10.76
2018-10-02T07:30:41.879Z,10.79
2018-10-02T07:33:11.870Z,10.81
2018-10-02T07:35:41.928Z,10.83
2018-10-02T07:38:12.256Z,10.86
2018-10-02T07:40:42.334Z,10.87
2018-10-02T07:43:12.301Z,10.88
2018-10-02T07:45:42.240Z,10.88
2018-10-02T07:48:12.196Z,10.88
2018-10-02T07:50:42.320Z,10.89
2018-10-02T07:53:12.243Z,10.89
2018-10-02T07:55:42.315Z,10.90
2018-10-02T07:58:12.736Z,10.90
2018-10-02T08:00:42.751Z,10.92
2018-10-02T08:03:12.823Z,10.93
2018-10-02T08:05:42.954Z,10.94
2018-10-02T08:08:13.233Z,10.97
2018-10-02T08:10:43.360Z,10.98
2018-10-02T08:13:13.468Z,11.01
2018-10-02T08:15:44.511Z,11.03
2018-10-02T08:18:14.673Z,11.04
2018-10-02T08:20:44.923Z,11.05
2018-10-02T08:23:14.945Z,11.06
2018-10-02T08:25:47.853Z,11.07
2018-10-02T08:28:19.274Z,11.09
2018-10-02T08:30:50.212Z,11.08
2018-10-02T08:33:21.224Z,11.09
2018-10-02T08:35:51.316Z,11.09
2018-10-02T08:38:21.407Z,11.08
2018-10-02T08:40:51.444Z,11.08
2018-10-02T08:43:21.508Z,11.07
2018-10-02T08:45:51.565Z,11.06
2018-10-02T08:48:21.563Z,11.07
2018-10-02T08:50:51.656Z,11.07
2018-10-02T08:53:21.719Z,11.08
2018-10-02T08:55:51.699Z,11.10
2018-10-02T08:58:21.735Z,11.11
2018-10-02T09:00:51.819Z,11.12
2018-10-02T09:03:21.829Z,11.14
2018-10-02T09:05:51.909Z,11.16
2018-10-02T09:08:21.942Z,11.19
2018-10-02T09:10:51.950Z,11.21
2018-10-02T09:13:22.099Z,11.24
2018-10-02T09:15:52.328Z,11.30
2018-10-02T09:18:22.263Z,11.32
2018-10-02T09:20:52.380Z,11.35
2018-10-02T09:23:22.383Z,11.37
2018-10-02T09:25:52.479Z,11.40
2018-10-02T09:28:22.511Z,11.44
2018-10-02T09:30:57.898Z,11.47
2018-10-02T09:33:32.815Z,11.51
2018-10-02T09:36:07.724Z,11.54
2018-10-02T09:38:42.573Z,11.56
2018-10-02T09:41:17.658Z,11.56
2018-10-02T09:43:50.508Z,11.57
2018-10-02T09:46:21.278Z,11.56
2018-10-02T09:48:51.414Z,11.56
2018-10-02T09:51:21.339Z,11.58
2018-10-02T09:53:51.640Z,11.60
2018-10-02T09:56:21.631Z,11.61
2018-10-02T09:58:51.673Z,11.63
2018-10-02T10:03:32.573Z,11.63
2018-10-02T10:06:02.603Z,11.66
2018-10-02T10:08:32.629Z,11.66
2018-10-02T10:11:02.635Z,11.67
2018-10-02T10:13:32.709Z,11.67
2018-10-02T10:16:02.630Z,11.69
2018-10-02T10:18:32.568Z,11.69
2018-10-02T10:21:02.592Z,11.70
2018-10-02T10:23:33.614Z,11.71
2018-10-02T10:26:03.575Z,11.71
2018-10-02T10:28:33.751Z,11.74
2018-10-02T10:31:03.770Z,11.75
2018-10-02T10:33:33.842Z,11.78
2018-10-02T10:36:03.802Z,11.79
2018-10-02T10:38:33.760Z,11.83
2018-10-02T10:41:03.797Z,11.86
2018-10-02T10:43:33.744Z,11.88
2018-10-02T10:46:03.786Z,11.92
2018-10-02T10:48:33.863Z,11.95
2018-10-02T10:51:03.846Z,11.98
2018-10-02T10:53:33.938Z,11.99
2018-10-02T10:56:03.904Z,12.03
2018-10-02T10:58:33.968Z,12.05
2018-10-02T11:01:03.940Z,12.08
2018-10-02T11:03:33.957Z,12.12
2018-10-02T11:06:04.012Z,12.14
2018-10-02T11:08:33.995Z,12.17
2018-10-02T11:11:03.967Z,12.20
2018-10-02T11:13:33.992Z,12.21
2018-10-02T11:16:03.995Z,12.22
2018-10-02T11:18:33.905Z,12.23
2018-10-02T11:21:03.969Z,12.25
2018-10-02T11:23:33.950Z,12.26
2018-10-02T11:26:03.942Z,12.26
2018-10-02T11:28:33.935Z,12.25
2018-10-02T11:31:03.953Z,12.25
2018-10-02T11:33:33.908Z,12.25
2018-10-02T11:36:03.953Z,12.25
2018-10-02T11:38:34.459Z,12.24
2018-10-02T11:41:04.511Z,12.25
2018-10-02T11:43:34.555Z,12.25
2018-10-02T11:46:04.518Z,12.25
2018-10-02T11:48:34.512Z,12.26
2018-10-02T11:51:04.754Z,12.28
2018-10-02T11:53:34.676Z,12.29
2018-10-02T11:56:04.752Z,12.32
2018-10-02T11:58:34.792Z,12.33
2018-10-02T12:01:04.970Z,12.35
2018-10-02T12:03:34.826Z,12.36
2018-10-02T12:06:04.779Z,12.39
2018-10-02T12:08:34.967Z,12.42
2018-10-02T12:11:05.059Z,12.44
2018-10-02T12:13:35.238Z,12.44
2018-10-02T12:16:05.063Z,12.46
2018-10-02T12:18:35.085Z,12.48
2018-10-02T12:21:05.374Z,12.50
2018-10-02T12:23:35.448Z,12.51
2018-10-02T12:26:05.442Z,12.52
2018-10-02T12:28:35.522Z,12.55
2018-10-02T12:31:05.541Z,12.56
2018-10-02T12:33:35.609Z,12.58
2018-10-02T12:36:06.244Z,12.58
2018-10-02T12:38:36.310Z,12.58
2018-10-02T12:41:06.377Z,12.59
2018-10-02T12:43:36.395Z,12.61
2018-10-02T12:46:06.446Z,12.64
2018-10-02T12:48:36.387Z,12.66
2018-10-02T12:51:06.454Z,12.68
2018-10-02T12:53:36.557Z,12.71
2018-10-02T12:56:06.603Z,12.73
2018-10-02T12:58:37.032Z,12.74
2018-10-02T13:01:07.056Z,12.77
2018-10-02T13:03:37.074Z,12.79
2018-10-02T13:06:07.111Z,12.81
2018-10-02T13:08:37.247Z,12.83
2018-10-02T13:11:07.260Z,12.87
2018-10-02T13:13:37.480Z,12.89
2018-10-02T13:16:07.540Z,12.92
2018-10-02T13:18:37.590Z,12.95
2018-10-02T13:21:07.618Z,12.98
2018-10-02T13:23:37.639Z,13.01
2018-10-02T13:26:07.606Z,13.04
2018-10-02T13:28:37.687Z,13.07
2018-10-02T13:31:07.757Z,13.12
2018-10-02T13:33:37.846Z,13.16
2018-10-02T13:36:08.732Z,13.19
2018-10-02T13:38:38.758Z,13.23
2018-10-02T13:41:08.787Z,13.26
2018-10-02T13:43:38.827Z,13.30
2018-10-02T13:46:08.993Z,13.35
2018-10-02T13:48:39.031Z,13.40
2018-10-02T13:51:09.170Z,13.45
2018-10-02T13:53:39.212Z,13.52
2018-10-02T13:56:09.356Z,13.59
2018-10-02T13:58:39.412Z,13.67
2018-10-02T14:01:09.553Z,13.72
2018-10-02T14:03:39.492Z,13.78
2018-10-02T14:06:09.475Z,13.86
2018-10-02T14:08:39.448Z,13.91
2018-10-02T14:11:09.621Z,13.96
2018-10-02T14:13:39.584Z,14.01
2018-10-02T14:16:09.659Z,14.05
2018-10-02T14:18:39.719Z,14.09
2018-10-02T14:21:09.718Z,14.13
2018-10-02T14:23:39.697Z,14.17
2018-10-02T14:26:09.910Z,14.21
2018-10-02T14:28:39.942Z,14.25
2018-10-02T14:31:09.999Z,14.28
2018-10-02T14:33:40.042Z,14.32
2018-10-02T14:36:10.068Z,14.35
2018-10-02T14:38:40.068Z,14.39
2018-10-02T14:41:10.025Z,14.42
2018-10-02T14:43:40.030Z,14.46
2018-10-02T14:46:10.076Z,14.49
2018-10-02T14:48:40.108Z,14.54
2018-10-02T14:51:10.104Z,14.55
2018-10-02T14:53:40.080Z,14.58
2018-10-02T14:56:10.138Z,14.62
2018-10-02T14:58:40.200Z,14.68
2018-10-02T15:01:10.245Z,14.72
2018-10-02T15:03:40.274Z,14.79
2018-10-02T15:06:10.323Z,14.84
2018-10-02T15:08:41.031Z,14.89
2018-10-02T15:11:11.095Z,14.95
2018-10-02T15:13:41.220Z,15.00
2018-10-02T15:16:11.231Z,15.04
2018-10-02T15:18:41.257Z,15.09
2018-10-02T15:21:11.297Z,15.15
2018-10-02T15:23:41.340Z,15.18
2018-10-02T15:26:11.413Z,15.23
2018-10-02T15:28:41.448Z,15.27
2018-10-02T15:31:11.523Z,15.30
2018-10-02T15:33:41.582Z,15.33
2018-10-02T15:36:11.572Z,15.36
2018-10-02T15:38:41.641Z,15.40
2018-10-02T15:41:12.119Z,15.42
2018-10-02T15:43:42.169Z,15.46
2018-10-02T15:46:12.209Z,15.47
2018-10-02T15:48:42.290Z,15.49
2018-10-02T15:51:12.331Z,15.50
2018-10-02T15:53:42.520Z,15.53
2018-10-02T15:56:12.622Z,15.56
2018-10-02T15:58:42.619Z,15.58
2018-10-02T16:01:12.681Z,15.60
2018-10-02T16:03:42.708Z,15.63
2018-10-02T16:06:12.735Z,15.65
2018-10-02T16:08:43.026Z,15.68
2018-10-02T16:11:13.177Z,15.71
2018-10-02T16:13:43.221Z,15.74
2018-10-02T16:16:13.258Z,15.77
2018-10-02T16:18:43.308Z,15.81
2018-10-02T16:21:13.368Z,15.84
2018-10-02T16:23:43.395Z,15.88
2018-10-02T16:26:13.433Z,15.92
2018-10-02T16:28:43.449Z,15.97
2018-10-02T16:31:13.431Z,16.01
2018-10-02T16:33:43.419Z,16.07
2018-10-02T16:36:13.452Z,16.09
2018-10-02T16:38:43.439Z,16.13
2018-10-02T16:41:13.512Z,16.17
2018-10-02T16:43:43.554Z,16.21
2018-10-02T16:46:13.545Z,16.24
2018-10-02T16:48:43.560Z,16.27
2018-10-02T16:51:13.606Z,16.27
2018-10-02T16:53:43.635Z,16.28
2018-10-02T16:56:13.837Z,16.29
2018-10-02T16:58:43.900Z,16.28
2018-10-02T17:01:14.024Z,16.26
2018-10-02T17:03:44.090Z,16.23
2018-10-02T17:06:14.125Z,16.20
2018-10-02T17:08:45.661Z,16.17
2018-10-02T17:11:15.688Z,16.13
2018-10-02T17:13:45.678Z,16.08
2018-10-02T17:16:15.607Z,16.02
2018-10-02T17:18:45.579Z,15.98
2018-10-02T17:21:15.677Z,15.92
2018-10-02T17:23:45.720Z,15.88
2018-10-02T17:26:15.748Z,15.82
2018-10-02T17:28:45.790Z,15.75
2018-10-02T17:31:15.793Z,15.70
2018-10-02T17:33:45.845Z,15.63
2018-10-02T17:36:15.902Z,15.57
2018-10-02T17:38:45.983Z,15.52
2018-10-02T17:41:16.190Z,15.46
2018-10-02T17:43:46.269Z,15.39
2018-10-02T17:46:16.291Z,15.34
2018-10-02T17:48:46.267Z,15.28
2018-10-02T17:51:16.274Z,15.23
2018-10-02T17:53:46.296Z,15.17
2018-10-02T17:56:16.273Z,15.12
2018-10-02T17:58:46.358Z,15.07
2018-10-02T18:01:16.439Z,15.03
2018-10-02T18:03:46.454Z,14.97
2018-10-02T18:06:16.515Z,14.92
2018-10-02T18:08:46.571Z,14.87
2018-10-02T18:11:16.588Z,14.82
2018-10-02T18:13:46.624Z,14.80
2018-10-02T18:16:16.583Z,14.78
2018-10-02T18:18:46.946Z,14.77
2018-10-02T18:21:17.171Z,14.77
2018-10-02T18:23:47.312Z,14.79
2018-10-02T18:26:17.482Z,14.81
2018-10-02T18:28:47.513Z,14.82
2018-10-02T18:31:17.559Z,14.82
2018-10-02T18:33:47.487Z,14.83
2018-10-02T18:36:17.574Z,14.84
2018-10-02T18:38:47.657Z,14.83
2018-10-02T18:41:17.563Z,14.83
2018-10-02T18:43:47.584Z,14.83
2018-10-02T18:46:18.015Z,14.82
2018-10-02T18:48:48.099Z,14.83
2018-10-02T18:51:18.157Z,14.81
2018-10-02T18:53:48.287Z,14.80
2018-10-02T18:56:18.474Z,14.78
2018-10-02T18:58:48.430Z,14.76
2018-10-02T19:01:18.566Z,14.73
2018-10-02T19:03:48.603Z,14.71
2018-10-02T19:06:18.767Z,14.70
2018-10-02T19:08:53.861Z,14.69
2018-10-02T19:11:28.787Z,14.67
2018-10-02T19:13:58.957Z,14.65
2018-10-02T19:16:31.692Z,14.63
2018-10-02T19:19:03.150Z,14.62
2018-10-02T19:21:33.153Z,14.60
2018-10-02T19:24:03.216Z,14.59
2018-10-02T19:26:33.264Z,14.57
2018-10-02T19:29:03.344Z,14.58
2018-10-02T19:31:38.269Z,14.58
2018-10-02T19:34:08.394Z,14.57
2018-10-02T19:36:38.652Z,14.57
2018-10-02T19:39:13.094Z,14.57
2018-10-02T19:41:43.260Z,14.56
2018-10-02T19:44:13.565Z,14.57
2018-10-02T19:46:49.275Z,14.58
2018-10-02T19:49:20.770Z,14.58
2018-10-02T19:51:55.867Z,14.59
2018-10-02T19:54:26.473Z,14.59
2018-10-02T19:56:57.700Z,14.59
2018-10-02T19:59:27.888Z,14.59
2018-10-02T20:01:57.903Z,14.60
2018-10-02T20:04:27.911Z,14.60
2018-10-02T20:06:57.989Z,14.59
2018-10-02T20:09:28.044Z,14.58
2018-10-02T20:11:58.179Z,14.57
2018-10-02T20:14:28.312Z,14.57
2018-10-02T20:16:58.416Z,14.56
2018-10-02T20:19:28.861Z,14.57
2018-10-02T20:21:58.878Z,14.55
2018-10-02T20:24:28.881Z,14.55
2018-10-02T20:26:58.951Z,14.54
2018-10-02T20:29:29.005Z,14.53
2018-10-02T20:31:59.489Z,14.52
2018-10-02T20:34:29.512Z,14.52
2018-10-02T20:36:59.605Z,14.52
2018-10-02T20:39:29.565Z,14.51
2018-10-02T20:41:59.614Z,14.50
2018-10-02T20:44:30.235Z,14.50
2018-10-02T20:47:00.263Z,14.48
2018-10-02T20:49:30.403Z,14.46
2018-10-02T20:52:00.439Z,14.43
2018-10-02T20:54:30.504Z,14.41
2018-10-02T20:57:00.596Z,14.40
2018-10-02T20:59:30.602Z,14.38
2018-10-02T21:02:00.649Z,14.37
2018-10-02T21:04:30.799Z,14.37
2018-10-02T21:07:00.898Z,14.34
2018-10-02T21:09:31.129Z,14.33
2018-10-02T21:12:01.266Z,14.31
2018-10-02T21:14:31.889Z,14.29
2018-10-02T21:17:01.983Z,14.28
2018-10-02T21:19:32.043Z,14.27
2018-10-02T21:22:02.092Z,14.26
2018-10-02T21:24:32.097Z,14.25
2018-10-02T21:27:02.097Z,14.22
2018-10-02T21:29:32.088Z,14.19
2018-10-02T21:32:02.147Z,14.16
2018-10-02T21:34:32.186Z,14.14
2018-10-02T21:37:02.226Z,14.13
2018-10-02T21:39:32.519Z,14.11
2018-10-02T21:42:02.599Z,14.09
2018-10-02T21:44:32.563Z,14.08
2018-10-02T21:47:02.629Z,14.08
2018-10-02T21:49:32.690Z,14.08
2018-10-02T21:52:02.735Z,14.08
2018-10-02T21:54:32.780Z,14.07
2018-10-02T21:57:02.810Z,14.06
2018-10-02T21:59:32.752Z,14.05
2018-10-02T22:02:02.734Z,14.06
2018-10-02T22:04:32.711Z,14.04
2018-10-02T22:07:02.751Z,14.02
2018-10-02T22:09:32.755Z,14.00
2018-10-02T22:12:02.879Z,14.00
2018-10-02T22:14:33.003Z,13.98
2018-10-02T22:17:02.992Z,13.97
2018-10-02T22:19:33.063Z,13.96
2018-10-02T22:22:03.060Z,13.94
2018-10-02T22:24:33.159Z,13.92
2018-10-02T22:27:03.127Z,13.90
2018-10-02T22:29:33.156Z,13.89
2018-10-02T22:32:03.183Z,13.88
2018-10-02T22:34:33.182Z,13.87
2018-10-02T22:37:03.195Z,13.87
2018-10-02T22:39:34.199Z,13.87
2018-10-02T22:42:04.183Z,13.88
2018-10-02T22:44:34.299Z,13.87
2018-10-02T22:47:04.252Z,13.87
2018-10-02T22:49:34.454Z,13.86
2018-10-02T22:52:04.425Z,13.84
2018-10-02T22:54:34.514Z,13.81
2018-10-02T22:57:04.433Z,13.78
2018-10-02T22:59:34.490Z,13.75
2018-10-02T23:02:04.493Z,13.72
2018-10-02T23:04:34.534Z,13.68
2018-10-02T23:07:04.540Z,13.65
2018-10-02T23:09:34.527Z,13.60
2018-10-02T23:12:04.552Z,13.58
2018-10-02T23:14:34.604Z,13.53
2018-10-02T23:17:04.596Z,13.50
2018-10-02T23:19:34.735Z,13.46
2018-10-02T23:22:04.778Z,13.43
2018-10-02T23:24:34.781Z,13.41
2018-10-02T23:27:04.832Z,13.39
2018-10-02T23:29:34.853Z,13.39
2018-10-02T23:32:04.837Z,13.39
2018-10-02T23:34:34.860Z,13.39
2018-10-02T23:37:04.874Z,13.39
2018-10-02T23:39:34.918Z,13.39
2018-10-02T23:42:04.960Z,13.41
2018-10-02T23:44:34.975Z,13.43
2018-10-02T23:47:04.962Z,13.44
2018-10-02T23:49:34.964Z,13.46
2018-10-02T23:52:04.950Z,13.48
2018-10-02T23:54:35.030Z,13.49
2018-10-02T23:57:05.052Z,13.51
2018-10-02T23:59:35.100Z,13.53
